Buchanan #12 — WDC2499 — position and weather

sailwx.info

Track history (hours):
 
Tides and Currents Weather Stations Pressure Air Temp Water Temp Dewpoint Dewpoint Depression Visibility Wind Speed Wind Dir Waves Ship Positions

Buchanan #12

Owner: Buchanan Marine LP, New Haven, CT. More information available from US FCC via Universal Licensing System and Coast Guard Vessel Documentation Center.

Last reported at 2017-Dec-17 09:30 UTC. Time now 2017-Dec-17 09:56 UTC.
Position N 40°40' W 074°01'.

Length 27 m; draft 3 m.

Type: Tug. MMSI: 366993970.

Date/timePositionNaut miles runAvg speedWind from/ knotsBaromVisibWave heightAir tempDewpointWater temp
2017-Dec-17 09:30N 40°40' W 074°01'0 0.0
2017-Dec-17 09:00N 40°40' W 074°01'0 0.0
2017-Dec-17 08:30N 40°40' W 074°01'0 0.0
2017-Dec-17 08:00N 40°40' W 074°01'0 0.0
2017-Dec-17 07:30N 40°40' W 074°01'0 0.0
2017-Dec-17 07:00N 40°40' W 074°01'0 0.0
2017-Dec-17 06:30N 40°40' W 074°01'0 0.0
2017-Dec-17 06:00N 40°40' W 074°01'1 1.0
2017-Dec-17 05:30N 40°40' W 074°02'1 1.8
2017-Dec-17 05:00N 40°40' W 074°03'0 0.1
2017-Dec-17 04:30N 40°40' W 074°03'4 7.4
2017-Dec-17 04:00N 40°44' W 074°01'4 7.0
2017-Dec-17 03:30N 40°47' W 073°60'3 6.5
2017-Dec-17 03:00N 40°50' W 073°57'3 5.8
2017-Dec-17 02:30N 40°53' W 073°56'3 5.3
2017-Dec-17 01:53N 40°56' W 073°55'4 0.2
2017-Dec-16 09:57N 40°59' W 073°53'3 6.4
2017-Dec-16 09:27N 40°56' W 073°55'3 5.8
2017-Dec-16 09:00N 40°54' W 073°56'3 5.6
2017-Dec-16 08:30N 40°51' W 073°57'3 5.2
2017-Dec-16 08:00N 40°49' W 073°58'2 4.7
2017-Dec-16 07:30N 40°47' W 073°60'2 4.5
2017-Dec-16 07:00N 40°45' W 074°01'2 4.5
2017-Dec-16 06:30N 40°43' W 074°02'2 4.5
2017-Dec-16 06:00N 40°40' W 074°02'1 1.8
2017-Dec-16 05:30N 40°40' W 074°03'0 0.0
2017-Dec-16 05:00N 40°40' W 074°03'0 0.0
2017-Dec-16 04:30N 40°40' W 074°03'0 0.0
2017-Dec-16 04:00N 40°40' W 074°03'0 0.0
2017-Dec-16 03:30N 40°40' W 074°03'0 0.0
2017-Dec-16 03:00N 40°40' W 074°03'0 0.0
2017-Dec-16 02:30N 40°40' W 074°03'0 0.0
2017-Dec-16 02:00N 40°40' W 074°03'0 0.1
2017-Dec-16 01:30N 40°40' W 074°03'0 0.1
2017-Dec-16 01:00N 40°40' W 074°03'0 0.2
2017-Dec-16 00:30N 40°40' W 074°03'0 0.1
2017-Dec-16 00:00N 40°40' W 074°03'0 0.0
2017-Dec-15 23:30N 40°40' W 074°03'0 0.0
2017-Dec-15 23:00N 40°40' W 074°03'0 0.0
2017-Dec-15 22:30N 40°40' W 074°03'0 0.0
2017-Dec-15 22:00N 40°40' W 074°03'0 0.0
2017-Dec-15 21:30N 40°40' W 074°03'0 0.0
2017-Dec-15 21:00N 40°40' W 074°03'0 0.0
2017-Dec-15 20:30N 40°40' W 074°03'0 0.0
2017-Dec-15 20:00N 40°40' W 074°03'0 0.0
2017-Dec-15 19:28N 40°40' W 074°03'0 0.0
2017-Dec-15 18:59N 40°40' W 074°03'0 0.0
2017-Dec-15 18:30N 40°40' W 074°03'0 0.0
2017-Dec-15 18:00N 40°40' W 074°03'0 0.0
2017-Dec-15 17:30N 40°40' W 074°03'0 0.0
2017-Dec-15 17:00N 40°40' W 074°03'0 0.0
2017-Dec-15 16:30N 40°40' W 074°03'0 0.0
2017-Dec-15 16:00N 40°40' W 074°03'2 4.9
2017-Dec-15 15:30N 40°39' W 074°06'0 0.6
2017-Dec-15 15:00N 40°39' W 074°07'0 0.0
2017-Dec-15 14:30N 40°39' W 074°07'0 0.0
2017-Dec-15 14:00N 40°39' W 074°07'0 0.0
2017-Dec-15 12:05N 40°39' W 074°07'0 2.8
2017-Dec-15 12:00N 40°39' W 074°06'2 5.0
2017-Dec-15 11:30N 40°40' W 074°03'0 0.1
2017-Dec-15 11:00N 40°40' W 074°03'3 5.6
2017-Dec-15 10:30N 40°41' W 074°00'1 2.9
2017-Dec-15 10:00N 40°41' W 074°02'1 2.7
2017-Dec-15 09:30N 40°40' W 074°03'1 3.0
2017-Dec-15 09:00N 40°41' W 074°02'1 2.5
2017-Dec-15 08:30N 40°41' W 074°00'3 5.4
2017-Dec-15 08:00N 40°40' W 074°03'0 0.2
2017-Dec-15 07:30N 40°40' W 074°03'2 3.3
2017-Dec-15 07:00N 40°41' W 074°02'4 7.7
2017-Dec-15 06:30N 40°45' W 074°01'4 8.3
2017-Dec-15 06:00N 40°49' W 073°58'4 8.0
2017-Dec-15 05:30N 40°52' W 073°56'4 7.5
2017-Dec-15 04:59N 40°56' W 073°55'3 0.2
2017-Dec-14 10:08N 40°59' W 073°54'1 7.3
2017-Dec-14 10:00N 40°58' W 073°54'4 7.0
2017-Dec-14 09:30N 40°55' W 073°55'3 7.0
2017-Dec-14 09:00N 40°51' W 073°57'3 6.6
2017-Dec-14 08:30N 40°48' W 073°59'3 6.1
2017-Dec-14 08:00N 40°46' W 074°01'3 5.2
2017-Dec-14 07:30N 40°43' W 074°01'3 5.0
2017-Dec-14 07:00N 40°41' W 074°02'1 2.5
2017-Dec-14 06:30N 40°40' W 074°03'0 0.1
2017-Dec-14 06:00N 40°40' W 074°03'0 0.1
2017-Dec-14 05:30N 40°40' W 074°03'0 0.0
2017-Dec-14 05:00N 40°40' W 074°03'0 0.0
2017-Dec-14 04:30N 40°40' W 074°03'0 0.0
2017-Dec-14 04:00N 40°40' W 074°03'0 0.0
2017-Dec-14 03:30N 40°40' W 074°03'0 0.0
2017-Dec-14 03:00N 40°40' W 074°03'0 0.0
2017-Dec-14 02:30N 40°40' W 074°03'0 0.0
2017-Dec-14 02:00N 40°40' W 074°03'0 0.0
2017-Dec-14 01:30N 40°40' W 074°03'0 0.0
2017-Dec-14 01:00N 40°40' W 074°03'0 0.0
2017-Dec-14 00:30N 40°40' W 074°03'0 0.0
2017-Dec-14 00:00N 40°40' W 074°03'0 0.0
2017-Dec-13 23:30N 40°40' W 074°03'0 0.0
2017-Dec-13 23:00N 40°40' W 074°03'0 0.0
2017-Dec-13 22:30N 40°40' W 074°03'0 0.2
2017-Dec-13 22:00N 40°40' W 074°03'1 1.2
2017-Dec-13 21:30N 40°40' W 074°03'1 1.3
2017-Dec-13 21:00N 40°40' W 074°03'0 0.2
2017-Dec-13 20:30N 40°40' W 074°03'0 0.1
2017-Dec-13 20:00N 40°40' W 074°03'0 0.0
2017-Dec-13 19:30N 40°40' W 074°03'0 0.0
2017-Dec-13 19:00N 40°40' W 074°03'0 0.0
2017-Dec-13 18:30N 40°40' W 074°03'0 0.0
2017-Dec-13 18:00N 40°40' W 074°03'0 0.1
2017-Dec-13 17:30N 40°40' W 074°03'0 0.1
2017-Dec-13 17:00N 40°40' W 074°03'0 0.0
2017-Dec-13 16:30N 40°40' W 074°03'0 0.0
2017-Dec-13 16:00N 40°40' W 074°03'0 0.0
2017-Dec-13 15:30N 40°40' W 074°03'0 0.0
2017-Dec-13 15:00N 40°40' W 074°03'0 0.0
2017-Dec-13 14:30N 40°40' W 074°03'0 0.0
2017-Dec-13 14:00N 40°40' W 074°03'0 0.0
2017-Dec-13 13:30N 40°40' W 074°03'0 0.0
2017-Dec-13 13:00N 40°40' W 074°03'0 0.0
2017-Dec-13 12:30N 40°40' W 074°03'0 0.0
2017-Dec-13 12:00N 40°40' W 074°03'0 0.0
2017-Dec-13 11:30N 40°40' W 074°03'0 0.0
2017-Dec-13 11:00N 40°40' W 074°03'0 0.0
2017-Dec-13 10:30N 40°40' W 074°03'0 0.0
2017-Dec-13 10:00N 40°40' W 074°03'0 0.0
2017-Dec-13 09:30N 40°40' W 074°03'0 0.1
2017-Dec-13 09:00N 40°40' W 074°03'0 0.0
2017-Dec-13 08:30N 40°40' W 074°03'0 0.0
2017-Dec-13 08:00N 40°40' W 074°03'0 0.2
2017-Dec-13 07:30N 40°40' W 074°03'0 0.4
2017-Dec-13 07:00N 40°40' W 074°03'3 5.4
2017-Dec-13 06:30N 40°41' W 074°00'2 3.1
2017-Dec-13 06:00N 40°40' W 074°02'1 2.6
2017-Dec-13 05:30N 40°40' W 074°03'0 0.9
2017-Dec-13 05:00N 40°40' W 074°03'2 5.0
2017-Dec-13 04:30N 40°41' W 074°00'3 5.7
2017-Dec-13 04:00N 40°40' W 074°03'0 0.2
2017-Dec-13 03:30N 40°40' W 074°03'0 0.6
2017-Dec-13 03:00N 40°40' W 074°03'3 6.6
2017-Dec-13 02:30N 40°43' W 074°01'3 6.8
2017-Dec-13 02:00N 40°46' W 074°00'3 6.4
2017-Dec-13 01:29N 40°49' W 073°58'3 5.4
2017-Dec-13 01:00N 40°52' W 073°57'3 5.5
2017-Dec-13 00:30N 40°54' W 073°55'5 0.3
2017-Dec-12 08:21N 40°59' W 073°54'3 8.1
2017-Dec-12 08:00N 40°56' W 073°55'4 8.0
2017-Dec-12 07:29N 40°52' W 073°56'4 8.2
2017-Dec-12 07:00N 40°49' W 073°58'4 7.3
2017-Dec-12 06:30N 40°46' W 074°01'3 6.7
2017-Dec-12 06:00N 40°42' W 074°02'3 5.3
2017-Dec-12 05:31N 40°40' W 074°03'0 0.1
2017-Dec-12 05:00N 40°40' W 074°03'0 0.7
2017-Dec-12 04:30N 40°40' W 074°03'1 1.0
2017-Dec-12 04:00N 40°40' W 074°03'4 7.7
2017-Dec-12 03:30N 40°43' W 073°59'5 8.7
2017-Dec-12 02:59N 40°47' W 073°56'3 6.6
2017-Dec-12 02:30N 40°48' W 073°52'2 4.0
2017-Dec-12 01:57N 40°48' W 073°49'0 0.0
2017-Dec-12 01:30N 40°48' W 073°49'0 0.0
2017-Dec-12 01:00N 40°48' W 073°49'0 0.1
2017-Dec-12 00:30N 40°48' W 073°49'0 0.0
2017-Dec-12 00:00N 40°48' W 073°49'0 0.1
2017-Dec-11 23:29N 40°48' W 073°49'0 0.9
2017-Dec-11 23:00N 40°48' W 073°50'2 3.7
2017-Dec-11 22:28N 40°48' W 073°53'2 3.6
2017-Dec-11 21:59N 40°48' W 073°55'2 4.1
2017-Dec-11 21:29N 40°46' W 073°57'3 6.0
2017-Dec-11 21:00N 40°44' W 073°58'3 6.1
2017-Dec-11 20:30N 40°41' W 074°01'2 4.7
2017-Dec-11 20:00N 40°40' W 074°03'0 0.0
2017-Dec-11 19:30N 40°40' W 074°03'0 0.2
2017-Dec-11 19:00N 40°40' W 074°03'2 3.2
2017-Dec-11 18:30N 40°40' W 074°02'1 1.4
2017-Dec-11 18:00N 40°40' W 074°01'0 0.0
2017-Dec-11 17:30N 40°40' W 074°01'0 0.0
2017-Dec-11 17:00N 40°40' W 074°01'0 0.0
2017-Dec-11 16:30N 40°40' W 074°01'0 0.0
2017-Dec-11 16:00N 40°40' W 074°01'0 0.0
2017-Dec-11 15:30N 40°40' W 074°01'0 0.0
2017-Dec-11 15:00N 40°40' W 074°01'0 0.0
2017-Dec-11 14:30N 40°40' W 074°01'0 0.0
2017-Dec-11 14:00N 40°40' W 074°01'0 0.0
2017-Dec-11 13:30N 40°40' W 074°01'0 0.0
2017-Dec-11 13:00N 40°40' W 074°01'0 0.0
2017-Dec-11 12:30N 40°40' W 074°01'0 0.0
2017-Dec-11 12:00N 40°40' W 074°01'0 0.0
2017-Dec-11 11:30N 40°40' W 074°01'0 0.0
2017-Dec-11 11:00N 40°40' W 074°01'0 0.0
2017-Dec-11 10:30N 40°40' W 074°01'0 0.0
2017-Dec-11 10:00N 40°40' W 074°01'0 0.1
2017-Dec-11 09:30N 40°40' W 074°01'2 3.6
2017-Dec-11 09:00N 40°40' W 074°03'2 4.8
2017-Dec-11 08:30N 40°41' W 074°01'3 6.8
2017-Dec-11 08:00N 40°44' W 073°58'3 6.0
2017-Dec-11 07:30N 40°47' W 073°56'3 5.8
2017-Dec-11 07:00N 40°48' W 073°53'3 6.2
2017-Dec-11 06:29N 40°48' W 073°48'2 3.4
2017-Dec-11 06:00N 40°48' W 073°51'0 0.1
2017-Dec-11 05:30N 40°48' W 073°50'3 6.6
2017-Dec-11 05:00N 40°47' W 073°55'4 7.9
2017-Dec-11 04:30N 40°45' W 073°58'3 7.0
2017-Dec-11 04:00N 40°42' W 074°00'3 5.6
2017-Dec-11 03:30N 40°40' W 074°03'0 0.2
2017-Dec-11 03:00N 40°40' W 074°03'0 0.1
2017-Dec-11 02:30N 40°40' W 074°03'0 1.0
2017-Dec-11 02:00N 40°40' W 074°03'3 6.9
2017-Dec-11 01:30N 40°43' W 074°01'4 7.4
2017-Dec-11 00:59N 40°47' W 073°60'3 7.0
2017-Dec-11 00:30N 40°50' W 073°58'3 6.5
2017-Dec-11 00:00N 40°53' W 073°56'6 0.3
2017-Dec-10 05:01N 40°59' W 073°54'0 6.0
2017-Dec-10 04:58N 40°58' W 073°54'3 5.7
2017-Dec-10 04:30N 40°56' W 073°55'3 5.2
2017-Dec-10 04:00N 40°53' W 073°56'3 5.0
2017-Dec-10 03:30N 40°51' W 073°57'2 4.6
2017-Dec-10 03:00N 40°49' W 073°58'2 4.2
2017-Dec-10 02:30N 40°47' W 073°60'2 4.0
2017-Dec-10 02:00N 40°45' W 074°01'2 3.9
2017-Dec-10 01:30N 40°43' W 074°01'2 3.6
2017-Dec-10 01:00N 40°41' W 074°02'2 3.8
2017-Dec-10 00:30N 40°40' W 074°03'0 0.1
2017-Dec-10 00:00N 40°40' W 074°03'3 6.8
2017-Dec-09 23:30N 40°42' W 073°60'611.1
2017-Dec-09 23:00N 40°47' W 073°56'5 9.5
2017-Dec-09 22:29N 40°48' W 073°50'0 0.6
2017-Dec-09 22:00N 40°48' W 073°49'0 0.0
2017-Dec-09 21:30N 40°48' W 073°49'0 0.0
2017-Dec-09 21:00N 40°48' W 073°49'0 0.0
2017-Dec-09 20:30N 40°48' W 073°49'0 0.0
2017-Dec-09 20:00N 40°48' W 073°49'0 0.0
2017-Dec-09 19:21N 40°48' W 073°49'0 0.1
2017-Dec-09 19:00N 40°48' W 073°49'0 0.0
2017-Dec-09 18:30N 40°48' W 073°49'0 0.0
2017-Dec-09 18:00N 40°48' W 073°49'0 0.0
2017-Dec-09 17:30N 40°48' W 073°49'0 0.0
2017-Dec-09 17:00N 40°48' W 073°49'0 0.5
2017-Dec-09 16:30N 40°48' W 073°50'2 3.4
2017-Dec-09 16:00N 40°48' W 073°52'4 8.0
2017-Dec-09 15:30N 40°46' W 073°57'4 8.6
2017-Dec-09 15:00N 40°42' W 073°59'4 7.5
2017-Dec-09 14:30N 40°40' W 074°03'1 2.9
2017-Dec-09 14:00N 40°39' W 074°04'2 3.2
2017-Dec-09 13:29N 40°39' W 074°07'0 0.0
2017-Dec-09 13:00N 40°39' W 074°07'0 0.0
2017-Dec-09 12:29N 40°39' W 074°07'0 0.0
2017-Dec-09 11:59N 40°39' W 074°07'0 0.0
2017-Dec-09 11:30N 40°39' W 074°07'0 0.0
2017-Dec-09 11:00N 40°39' W 074°07'1 2.2
2017-Dec-09 10:30N 40°39' W 074°05'2 3.3
2017-Dec-09 10:00N 40°40' W 074°03'0 0.0
2017-Dec-09 09:30N 40°40' W 074°03'0 0.0
2017-Dec-09 09:00N 40°40' W 074°03'0 0.0
2017-Dec-09 08:30N 40°40' W 074°03'0 0.0
2017-Dec-09 08:00N 40°40' W 074°03'0 0.0
2017-Dec-09 07:30N 40°40' W 074°03'0 0.1
2017-Dec-09 07:00N 40°40' W 074°03'3 6.0
2017-Dec-09 06:30N 40°42' W 074°00'3 5.6
2017-Dec-09 05:59N 40°44' W 073°58'2 4.2
2017-Dec-09 05:30N 40°46' W 073°57'2 3.8
2017-Dec-09 04:56N 40°47' W 073°55'2 4.6
2017-Dec-09 04:30N 40°48' W 073°52'3 4.5
2017-Dec-09 03:56N 40°48' W 073°49'0 0.4
2017-Dec-09 03:29N 40°48' W 073°49'3 6.1
2017-Dec-09 02:59N 40°48' W 073°53'3 6.0
2017-Dec-09 02:30N 40°46' W 073°56'3 6.3
2017-Dec-09 02:00N 40°44' W 073°58'3 5.6
2017-Dec-09 01:30N 40°41' W 074°00'2 4.4
2017-Dec-09 01:00N 40°40' W 074°03'1 1.1
2017-Dec-09 00:30N 40°40' W 074°03'2 4.6
2017-Dec-09 00:00N 40°42' W 074°02'4 7.1
2017-Dec-08 23:30N 40°45' W 074°01'4 7.0
2017-Dec-08 23:00N 40°49' W 073°59'3 6.6
2017-Dec-08 22:30N 40°52' W 073°57'3 5.9
2017-Dec-08 21:58N 40°54' W 073°55'5 0.3
2017-Dec-08 03:29N 40°59' W 073°53'3 6.6
2017-Dec-08 03:00N 40°56' W 073°55'3 6.1
2017-Dec-08 02:30N 40°53' W 073°56'3 5.9
2017-Dec-08 02:00N 40°51' W 073°57'3 5.1
2017-Dec-08 01:29N 40°48' W 073°59'2 4.6
2017-Dec-08 01:00N 40°46' W 074°00'2 4.3
2017-Dec-08 00:30N 40°44' W 074°01'2 4.8
2017-Dec-08 00:00N 40°42' W 074°02'2 4.5
2017-Dec-07 23:30N 40°40' W 074°03'0 0.0
2017-Dec-07 23:00N 40°40' W 074°03'0 0.0
2017-Dec-07 22:30N 40°40' W 074°03'1 2.6
2017-Dec-07 22:00N 40°41' W 074°02'4 7.6
2017-Dec-07 21:30N 40°43' W 073°58'4 8.4
2017-Dec-07 21:00N 40°47' W 073°55'3 6.6
2017-Dec-07 20:30N 40°48' W 073°51'2 3.0
2017-Dec-07 19:59N 40°48' W 073°49'0 0.0
2017-Dec-07 19:25N 40°48' W 073°49'0 0.0
2017-Dec-07 18:55N 40°48' W 073°49'0 0.0
2017-Dec-07 18:30N 40°48' W 073°49'0 0.0
2017-Dec-07 17:51N 40°48' W 073°49'0 0.0
2017-Dec-07 17:27N 40°48' W 073°49'0 0.0
2017-Dec-07 17:00N 40°48' W 073°49'0 0.0
2017-Dec-07 16:30N 40°48' W 073°49'0 0.0
2017-Dec-07 15:43N 40°48' W 073°49'0 0.0
2017-Dec-07 15:30N 40°48' W 073°49'0 0.0
2017-Dec-07 15:00N 40°48' W 073°49'1 1.0
2017-Dec-07 14:28N 40°48' W 073°49'3 5.4
2017-Dec-07 14:00N 40°48' W 073°52'4 7.4
2017-Dec-07 13:30N 40°46' W 073°56'4 7.9
2017-Dec-07 13:00N 40°43' W 073°58'4 7.2
2017-Dec-07 12:30N 40°40' W 074°02'1 2.4
2017-Dec-07 12:00N 40°40' W 074°03'0 0.1
2017-Dec-07 11:30N 40°40' W 074°03'1 1.1
2017-Dec-07 11:00N 40°40' W 074°03'4 7.6
2017-Dec-07 10:30N 40°44' W 074°01'4 8.1
2017-Dec-07 10:00N 40°48' W 073°59'  
Track history (hours):
 
Tides and Currents Weather Stations Pressure Air Temp Water Temp Dewpoint Dewpoint Depression Visibility Wind Speed Wind Dir Waves Ship Positions

Buchanan #12

Owner: Buchanan Marine LP, New Haven, CT. More information available from US FCC via Universal Licensing System and Coast Guard Vessel Documentation Center.

Last reported at 2017-Dec-17 09:30 UTC. Time now 2017-Dec-17 09:56 UTC.
Position N 40°40' W 074°01'.

Length 27 m; draft 3 m.

Type: Tug. MMSI: 366993970.

Date/timePositionNaut miles runAvg speedWind from/ knotsBaromVisibWave heightAir tempDewpointWater temp
2017-Dec-17 09:30N 40°40' W 074°01'0 0.0
2017-Dec-17 09:00N 40°40' W 074°01'0 0.0
2017-Dec-17 08:30N 40°40' W 074°01'0 0.0
2017-Dec-17 08:00N 40°40' W 074°01'0 0.0
2017-Dec-17 07:30N 40°40' W 074°01'0 0.0
2017-Dec-17 07:00N 40°40' W 074°01'0 0.0
2017-Dec-17 06:30N 40°40' W 074°01'0 0.0
2017-Dec-17 06:00N 40°40' W 074°01'1 1.0
2017-Dec-17 05:30N 40°40' W 074°02'1 1.8
2017-Dec-17 05:00N 40°40' W 074°03'0 0.1
2017-Dec-17 04:30N 40°40' W 074°03'4 7.4
2017-Dec-17 04:00N 40°44' W 074°01'4 7.0
2017-Dec-17 03:30N 40°47' W 073°60'3 6.5
2017-Dec-17 03:00N 40°50' W 073°57'3 5.8
2017-Dec-17 02:30N 40°53' W 073°56'3 5.3
2017-Dec-17 01:53N 40°56' W 073°55'4 0.2
2017-Dec-16 09:57N 40°59' W 073°53'3 6.4
2017-Dec-16 09:27N 40°56' W 073°55'3 5.8
2017-Dec-16 09:00N 40°54' W 073°56'3 5.6
2017-Dec-16 08:30N 40°51' W 073°57'3 5.2
2017-Dec-16 08:00N 40°49' W 073°58'2 4.7
2017-Dec-16 07:30N 40°47' W 073°60'2 4.5
2017-Dec-16 07:00N 40°45' W 074°01'2 4.5
2017-Dec-16 06:30N 40°43' W 074°02'2 4.5
2017-Dec-16 06:00N 40°40' W 074°02'1 1.8
2017-Dec-16 05:30N 40°40' W 074°03'0 0.0
2017-Dec-16 05:00N 40°40' W 074°03'0 0.0
2017-Dec-16 04:30N 40°40' W 074°03'0 0.0
2017-Dec-16 04:00N 40°40' W 074°03'0 0.0
2017-Dec-16 03:30N 40°40' W 074°03'0 0.0
2017-Dec-16 03:00N 40°40' W 074°03'0 0.0
2017-Dec-16 02:30N 40°40' W 074°03'0 0.0
2017-Dec-16 02:00N 40°40' W 074°03'0 0.1
2017-Dec-16 01:30N 40°40' W 074°03'0 0.1
2017-Dec-16 01:00N 40°40' W 074°03'0 0.2
2017-Dec-16 00:30N 40°40' W 074°03'0 0.1
2017-Dec-16 00:00N 40°40' W 074°03'0 0.0
2017-Dec-15 23:30N 40°40' W 074°03'0 0.0
2017-Dec-15 23:00N 40°40' W 074°03'0 0.0
2017-Dec-15 22:30N 40°40' W 074°03'0 0.0
2017-Dec-15 22:00N 40°40' W 074°03'0 0.0
2017-Dec-15 21:30N 40°40' W 074°03'0 0.0
2017-Dec-15 21:00N 40°40' W 074°03'0 0.0
2017-Dec-15 20:30N 40°40' W 074°03'0 0.0
2017-Dec-15 20:00N 40°40' W 074°03'0 0.0
2017-Dec-15 19:28N 40°40' W 074°03'0 0.0
2017-Dec-15 18:59N 40°40' W 074°03'0 0.0
2017-Dec-15 18:30N 40°40' W 074°03'0 0.0
2017-Dec-15 18:00N 40°40' W 074°03'0 0.0
2017-Dec-15 17:30N 40°40' W 074°03'0 0.0
2017-Dec-15 17:00N 40°40' W 074°03'0 0.0
2017-Dec-15 16:30N 40°40' W 074°03'0 0.0
2017-Dec-15 16:00N 40°40' W 074°03'2 4.9
2017-Dec-15 15:30N 40°39' W 074°06'0 0.6
2017-Dec-15 15:00N 40°39' W 074°07'0 0.0
2017-Dec-15 14:30N 40°39' W 074°07'0 0.0
2017-Dec-15 14:00N 40°39' W 074°07'0 0.0
2017-Dec-15 12:05N 40°39' W 074°07'0 2.8
2017-Dec-15 12:00N 40°39' W 074°06'2 5.0
2017-Dec-15 11:30N 40°40' W 074°03'0 0.1
2017-Dec-15 11:00N 40°40' W 074°03'3 5.6
2017-Dec-15 10:30N 40°41' W 074°00'1 2.9
2017-Dec-15 10:00N 40°41' W 074°02'1 2.7
2017-Dec-15 09:30N 40°40' W 074°03'1 3.0
2017-Dec-15 09:00N 40°41' W 074°02'1 2.5
2017-Dec-15 08:30N 40°41' W 074°00'3 5.4
2017-Dec-15 08:00N 40°40' W 074°03'0 0.2
2017-Dec-15 07:30N 40°40' W 074°03'2 3.3
2017-Dec-15 07:00N 40°41' W 074°02'4 7.7
2017-Dec-15 06:30N 40°45' W 074°01'4 8.3
2017-Dec-15 06:00N 40°49' W 073°58'4 8.0
2017-Dec-15 05:30N 40°52' W 073°56'4 7.5
2017-Dec-15 04:59N 40°56' W 073°55'3 0.2
2017-Dec-14 10:08N 40°59' W 073°54'1 7.3
2017-Dec-14 10:00N 40°58' W 073°54'4 7.0
2017-Dec-14 09:30N 40°55' W 073°55'3 7.0
2017-Dec-14 09:00N 40°51' W 073°57'3 6.6
2017-Dec-14 08:30N 40°48' W 073°59'3 6.1
2017-Dec-14 08:00N 40°46' W 074°01'3 5.2
2017-Dec-14 07:30N 40°43' W 074°01'3 5.0
2017-Dec-14 07:00N 40°41' W 074°02'1 2.5
2017-Dec-14 06:30N 40°40' W 074°03'0 0.1
2017-Dec-14 06:00N 40°40' W 074°03'0 0.1
2017-Dec-14 05:30N 40°40' W 074°03'0 0.0
2017-Dec-14 05:00N 40°40' W 074°03'0 0.0
2017-Dec-14 04:30N 40°40' W 074°03'0 0.0
2017-Dec-14 04:00N 40°40' W 074°03'0 0.0
2017-Dec-14 03:30N 40°40' W 074°03'0 0.0
2017-Dec-14 03:00N 40°40' W 074°03'0 0.0
2017-Dec-14 02:30N 40°40' W 074°03'0 0.0
2017-Dec-14 02:00N 40°40' W 074°03'0 0.0
2017-Dec-14 01:30N 40°40' W 074°03'0 0.0
2017-Dec-14 01:00N 40°40' W 074°03'0 0.0
2017-Dec-14 00:30N 40°40' W 074°03'0 0.0
2017-Dec-14 00:00N 40°40' W 074°03'0 0.0
2017-Dec-13 23:30N 40°40' W 074°03'0 0.0
2017-Dec-13 23:00N 40°40' W 074°03'0 0.0
2017-Dec-13 22:30N 40°40' W 074°03'0 0.2
2017-Dec-13 22:00N 40°40' W 074°03'1 1.2
2017-Dec-13 21:30N 40°40' W 074°03'1 1.3
2017-Dec-13 21:00N 40°40' W 074°03'0 0.2
2017-Dec-13 20:30N 40°40' W 074°03'0 0.1
2017-Dec-13 20:00N 40°40' W 074°03'0 0.0
2017-Dec-13 19:30N 40°40' W 074°03'0 0.0
2017-Dec-13 19:00N 40°40' W 074°03'0 0.0
2017-Dec-13 18:30N 40°40' W 074°03'0 0.0
2017-Dec-13 18:00N 40°40' W 074°03'0 0.1
2017-Dec-13 17:30N 40°40' W 074°03'0 0.1
2017-Dec-13 17:00N 40°40' W 074°03'0 0.0
2017-Dec-13 16:30N 40°40' W 074°03'0 0.0
2017-Dec-13 16:00N 40°40' W 074°03'0 0.0
2017-Dec-13 15:30N 40°40' W 074°03'0 0.0
2017-Dec-13 15:00N 40°40' W 074°03'0 0.0
2017-Dec-13 14:30N 40°40' W 074°03'0 0.0
2017-Dec-13 14:00N 40°40' W 074°03'0 0.0
2017-Dec-13 13:30N 40°40' W 074°03'0 0.0
2017-Dec-13 13:00N 40°40' W 074°03'0 0.0
2017-Dec-13 12:30N 40°40' W 074°03'0 0.0
2017-Dec-13 12:00N 40°40' W 074°03'0 0.0
2017-Dec-13 11:30N 40°40' W 074°03'0 0.0
2017-Dec-13 11:00N 40°40' W 074°03'0 0.0
2017-Dec-13 10:30N 40°40' W 074°03'0 0.0
2017-Dec-13 10:00N 40°40' W 074°03'0 0.0
2017-Dec-13 09:30N 40°40' W 074°03'0 0.1
2017-Dec-13 09:00N 40°40' W 074°03'0 0.0
2017-Dec-13 08:30N 40°40' W 074°03'0 0.0
2017-Dec-13 08:00N 40°40' W 074°03'0 0.2
2017-Dec-13 07:30N 40°40' W 074°03'0 0.4
2017-Dec-13 07:00N 40°40' W 074°03'3 5.4
2017-Dec-13 06:30N 40°41' W 074°00'2 3.1
2017-Dec-13 06:00N 40°40' W 074°02'1 2.6
2017-Dec-13 05:30N 40°40' W 074°03'0 0.9
2017-Dec-13 05:00N 40°40' W 074°03'2 5.0
2017-Dec-13 04:30N 40°41' W 074°00'3 5.7
2017-Dec-13 04:00N 40°40' W 074°03'0 0.2
2017-Dec-13 03:30N 40°40' W 074°03'0 0.6
2017-Dec-13 03:00N 40°40' W 074°03'3 6.6
2017-Dec-13 02:30N 40°43' W 074°01'3 6.8
2017-Dec-13 02:00N 40°46' W 074°00'3 6.4
2017-Dec-13 01:29N 40°49' W 073°58'3 5.4
2017-Dec-13 01:00N 40°52' W 073°57'3 5.5
2017-Dec-13 00:30N 40°54' W 073°55'5 0.3
2017-Dec-12 08:21N 40°59' W 073°54'3 8.1
2017-Dec-12 08:00N 40°56' W 073°55'4 8.0
2017-Dec-12 07:29N 40°52' W 073°56'4 8.2
2017-Dec-12 07:00N 40°49' W 073°58'4 7.3
2017-Dec-12 06:30N 40°46' W 074°01'3 6.7
2017-Dec-12 06:00N 40°42' W 074°02'3 5.3
2017-Dec-12 05:31N 40°40' W 074°03'0 0.1
2017-Dec-12 05:00N 40°40' W 074°03'0 0.7
2017-Dec-12 04:30N 40°40' W 074°03'1 1.0
2017-Dec-12 04:00N 40°40' W 074°03'4 7.7
2017-Dec-12 03:30N 40°43' W 073°59'5 8.7
2017-Dec-12 02:59N 40°47' W 073°56'3 6.6
2017-Dec-12 02:30N 40°48' W 073°52'2 4.0
2017-Dec-12 01:57N 40°48' W 073°49'0 0.0
2017-Dec-12 01:30N 40°48' W 073°49'0 0.0
2017-Dec-12 01:00N 40°48' W 073°49'0 0.1
2017-Dec-12 00:30N 40°48' W 073°49'0 0.0
2017-Dec-12 00:00N 40°48' W 073°49'0 0.1
2017-Dec-11 23:29N 40°48' W 073°49'0 0.9
2017-Dec-11 23:00N 40°48' W 073°50'2 3.7
2017-Dec-11 22:28N 40°48' W 073°53'2 3.6
2017-Dec-11 21:59N 40°48' W 073°55'2 4.1
2017-Dec-11 21:29N 40°46' W 073°57'3 6.0
2017-Dec-11 21:00N 40°44' W 073°58'3 6.1
2017-Dec-11 20:30N 40°41' W 074°01'2 4.7
2017-Dec-11 20:00N 40°40' W 074°03'0 0.0
2017-Dec-11 19:30N 40°40' W 074°03'0 0.2
2017-Dec-11 19:00N 40°40' W 074°03'2 3.2
2017-Dec-11 18:30N 40°40' W 074°02'1 1.4
2017-Dec-11 18:00N 40°40' W 074°01'0 0.0
2017-Dec-11 17:30N 40°40' W 074°01'0 0.0
2017-Dec-11 17:00N 40°40' W 074°01'0 0.0
2017-Dec-11 16:30N 40°40' W 074°01'0 0.0
2017-Dec-11 16:00N 40°40' W 074°01'0 0.0
2017-Dec-11 15:30N 40°40' W 074°01'0 0.0
2017-Dec-11 15:00N 40°40' W 074°01'0 0.0
2017-Dec-11 14:30N 40°40' W 074°01'0 0.0
2017-Dec-11 14:00N 40°40' W 074°01'0 0.0
2017-Dec-11 13:30N 40°40' W 074°01'0 0.0
2017-Dec-11 13:00N 40°40' W 074°01'0 0.0
2017-Dec-11 12:30N 40°40' W 074°01'0 0.0
2017-Dec-11 12:00N 40°40' W 074°01'0 0.0
2017-Dec-11 11:30N 40°40' W 074°01'0 0.0
2017-Dec-11 11:00N 40°40' W 074°01'0 0.0
2017-Dec-11 10:30N 40°40' W 074°01'0 0.0
2017-Dec-11 10:00N 40°40' W 074°01'0 0.1
2017-Dec-11 09:30N 40°40' W 074°01'2 3.6
2017-Dec-11 09:00N 40°40' W 074°03'2 4.8
2017-Dec-11 08:30N 40°41' W 074°01'3 6.8
2017-Dec-11 08:00N 40°44' W 073°58'3 6.0
2017-Dec-11 07:30N 40°47' W 073°56'3 5.8
2017-Dec-11 07:00N 40°48' W 073°53'3 6.2
2017-Dec-11 06:29N 40°48' W 073°48'2 3.4
2017-Dec-11 06:00N 40°48' W 073°51'0 0.1
2017-Dec-11 05:30N 40°48' W 073°50'3 6.6
2017-Dec-11 05:00N 40°47' W 073°55'4 7.9
2017-Dec-11 04:30N 40°45' W 073°58'3 7.0
2017-Dec-11 04:00N 40°42' W 074°00'3 5.6
2017-Dec-11 03:30N 40°40' W 074°03'0 0.2
2017-Dec-11 03:00N 40°40' W 074°03'0 0.1
2017-Dec-11 02:30N 40°40' W 074°03'0 1.0
2017-Dec-11 02:00N 40°40' W 074°03'3 6.9
2017-Dec-11 01:30N 40°43' W 074°01'4 7.4
2017-Dec-11 00:59N 40°47' W 073°60'3 7.0
2017-Dec-11 00:30N 40°50' W 073°58'3 6.5
2017-Dec-11 00:00N 40°53' W 073°56'6 0.3
2017-Dec-10 05:01N 40°59' W 073°54'0 6.0
2017-Dec-10 04:58N 40°58' W 073°54'3 5.7
2017-Dec-10 04:30N 40°56' W 073°55'3 5.2
2017-Dec-10 04:00N 40°53' W 073°56'3 5.0
2017-Dec-10 03:30N 40°51' W 073°57'2 4.6
2017-Dec-10 03:00N 40°49' W 073°58'2 4.2
2017-Dec-10 02:30N 40°47' W 073°60'2 4.0
2017-Dec-10 02:00N 40°45' W 074°01'2 3.9
2017-Dec-10 01:30N 40°43' W 074°01'2 3.6
2017-Dec-10 01:00N 40°41' W 074°02'2 3.8
2017-Dec-10 00:30N 40°40' W 074°03'0 0.1
2017-Dec-10 00:00N 40°40' W 074°03'3 6.8
2017-Dec-09 23:30N 40°42' W 073°60'611.1
2017-Dec-09 23:00N 40°47' W 073°56'5 9.5
2017-Dec-09 22:29N 40°48' W 073°50'0 0.6
2017-Dec-09 22:00N 40°48' W 073°49'0 0.0
2017-Dec-09 21:30N 40°48' W 073°49'0 0.0
2017-Dec-09 21:00N 40°48' W 073°49'0 0.0
2017-Dec-09 20:30N 40°48' W 073°49'0 0.0
2017-Dec-09 20:00N 40°48' W 073°49'0 0.0
2017-Dec-09 19:21N 40°48' W 073°49'0 0.1
2017-Dec-09 19:00N 40°48' W 073°49'0 0.0
2017-Dec-09 18:30N 40°48' W 073°49'0 0.0
2017-Dec-09 18:00N 40°48' W 073°49'0 0.0
2017-Dec-09 17:30N 40°48' W 073°49'0 0.0
2017-Dec-09 17:00N 40°48' W 073°49'0 0.5
2017-Dec-09 16:30N 40°48' W 073°50'2 3.4
2017-Dec-09 16:00N 40°48' W 073°52'4 8.0
2017-Dec-09 15:30N 40°46' W 073°57'4 8.6
2017-Dec-09 15:00N 40°42' W 073°59'4 7.5
2017-Dec-09 14:30N 40°40' W 074°03'1 2.9
2017-Dec-09 14:00N 40°39' W 074°04'2 3.2
2017-Dec-09 13:29N 40°39' W 074°07'0 0.0
2017-Dec-09 13:00N 40°39' W 074°07'0 0.0
2017-Dec-09 12:29N 40°39' W 074°07'0 0.0
2017-Dec-09 11:59N 40°39' W 074°07'0 0.0
2017-Dec-09 11:30N 40°39' W 074°07'0 0.0
2017-Dec-09 11:00N 40°39' W 074°07'1 2.2
2017-Dec-09 10:30N 40°39' W 074°05'2 3.3
2017-Dec-09 10:00N 40°40' W 074°03'0 0.0
2017-Dec-09 09:30N 40°40' W 074°03'0 0.0
2017-Dec-09 09:00N 40°40' W 074°03'0 0.0
2017-Dec-09 08:30N 40°40' W 074°03'0 0.0
2017-Dec-09 08:00N 40°40' W 074°03'0 0.0
2017-Dec-09 07:30N 40°40' W 074°03'0 0.1
2017-Dec-09 07:00N 40°40' W 074°03'3 6.0
2017-Dec-09 06:30N 40°42' W 074°00'3 5.6
2017-Dec-09 05:59N 40°44' W 073°58'2 4.2
2017-Dec-09 05:30N 40°46' W 073°57'2 3.8
2017-Dec-09 04:56N 40°47' W 073°55'2 4.6
2017-Dec-09 04:30N 40°48' W 073°52'3 4.5
2017-Dec-09 03:56N 40°48' W 073°49'0 0.4
2017-Dec-09 03:29N 40°48' W 073°49'3 6.1
2017-Dec-09 02:59N 40°48' W 073°53'3 6.0
2017-Dec-09 02:30N 40°46' W 073°56'3 6.3
2017-Dec-09 02:00N 40°44' W 073°58'3 5.6
2017-Dec-09 01:30N 40°41' W 074°00'2 4.4
2017-Dec-09 01:00N 40°40' W 074°03'1 1.1
2017-Dec-09 00:30N 40°40' W 074°03'2 4.6
2017-Dec-09 00:00N 40°42' W 074°02'4 7.1
2017-Dec-08 23:30N 40°45' W 074°01'4 7.0
2017-Dec-08 23:00N 40°49' W 073°59'3 6.6
2017-Dec-08 22:30N 40°52' W 073°57'3 5.9
2017-Dec-08 21:58N 40°54' W 073°55'5 0.3
2017-Dec-08 03:29N 40°59' W 073°53'3 6.6
2017-Dec-08 03:00N 40°56' W 073°55'3 6.1
2017-Dec-08 02:30N 40°53' W 073°56'3 5.9
2017-Dec-08 02:00N 40°51' W 073°57'3 5.1
2017-Dec-08 01:29N 40°48' W 073°59'2 4.6
2017-Dec-08 01:00N 40°46' W 074°00'2 4.3
2017-Dec-08 00:30N 40°44' W 074°01'2 4.8
2017-Dec-08 00:00N 40°42' W 074°02'2 4.5
2017-Dec-07 23:30N 40°40' W 074°03'0 0.0
2017-Dec-07 23:00N 40°40' W 074°03'0 0.0
2017-Dec-07 22:30N 40°40' W 074°03'1 2.6
2017-Dec-07 22:00N 40°41' W 074°02'4 7.6
2017-Dec-07 21:30N 40°43' W 073°58'4 8.4
2017-Dec-07 21:00N 40°47' W 073°55'3 6.6
2017-Dec-07 20:30N 40°48' W 073°51'2 3.0
2017-Dec-07 19:59N 40°48' W 073°49'0 0.0
2017-Dec-07 19:25N 40°48' W 073°49'0 0.0
2017-Dec-07 18:55N 40°48' W 073°49'0 0.0
2017-Dec-07 18:30N 40°48' W 073°49'0 0.0
2017-Dec-07 17:51N 40°48' W 073°49'0 0.0
2017-Dec-07 17:27N 40°48' W 073°49'0 0.0
2017-Dec-07 17:00N 40°48' W 073°49'0 0.0
2017-Dec-07 16:30N 40°48' W 073°49'0 0.0
2017-Dec-07 15:43N 40°48' W 073°49'0 0.0
2017-Dec-07 15:30N 40°48' W 073°49'0 0.0
2017-Dec-07 15:00N 40°48' W 073°49'1 1.0
2017-Dec-07 14:28N 40°48' W 073°49'3 5.4
2017-Dec-07 14:00N 40°48' W 073°52'4 7.4
2017-Dec-07 13:30N 40°46' W 073°56'4 7.9
2017-Dec-07 13:00N 40°43' W 073°58'4 7.2
2017-Dec-07 12:30N 40°40' W 074°02'1 2.4
2017-Dec-07 12:00N 40°40' W 074°03'0 0.1
2017-Dec-07 11:30N 40°40' W 074°03'1 1.1
2017-Dec-07 11:00N 40°40' W 074°03'4 7.6
2017-Dec-07 10:30N 40°44' W 074°01'4 8.1
2017-Dec-07 10:00N 40°48' W 073°59'  

Dump ship's entire track history